Terminal Aerodrome Forecast
Issued by NWS North Platte, NE

Home | Current Version | Previous Version | Graphics & Text | Print | Product List | Glossary On
Versions: 1 2 3 4 5 6 7 8 9 10 11 12 13 14 15
000
FTUS43 KLBF 301131
TAFVTN
TAF
KVTN 301131Z 3012/0112 31018G27KT 6SM BLSN VCSH SCT020 BKN050
      OVC080
     FM301400 31019G30KT 5SM BLSN VCSH OVC015
     FM302100 31017G25KT P6SM BKN020 OVC050
     FM010000 31012KT P6SM BKN020 OVC050
     FM010600 30008KT P6SM SCT020 BKN040=

USA.gov is the U.S. government's official web portal to all federal, state and local government web resources and services.